Time;durP1;ratioP1;P1;durP2;ratioP2;P2;SDS_P1;SDS_P2;PMS_P1;PMS_P2;Temp;Humidity;BMP_temperature;BMP_pressure;BME280_temperature;BME280_humidity;BME280_pressure;Samples;Min_cycle;Max_cycle;Signal;HPM_P1;HPM_P2
2024/01/28 00:01:54;;;;;;;50.75;32.78;;;;;;;-144.47;100.00;61586.06;5068384;28;20071;-75
2024/01/28 00:04:20;;;;;;;52.03;34.28;;;;;;;-144.47;100.00;61586.06;5064124;28;20021;-75
2024/01/28 00:06:45;;;;;;;48.58;32.63;;;;;;;-144.47;100.00;61586.06;5064683;28;20040;-74
2024/01/28 00:09:11;;;;;;;51.58;34.20;;;;;;;-144.47;100.00;61586.06;5066374;28;20192;-74
2024/01/28 00:11:39;;;;;;;48.72;33.78;;;;;;;-144.47;100.00;61586.06;5066081;28;20041;-77
2024/01/28 00:14:05;;;;;;;48.20;32.72;;;;;;;-144.47;100.00;61586.06;5069668;28;20036;-76
2024/01/28 00:16:31;;;;;;;49.45;32.67;;;;;;;-144.47;100.00;61586.06;5063923;28;20037;-74
2024/01/28 00:18:58;;;;;;;48.35;30.70;;;;;;;-144.47;100.00;61586.06;5049399;28;20041;-75
2024/01/28 00:21:24;;;;;;;45.55;29.23;;;;;;;-144.47;100.00;61586.06;5067620;28;20111;-75
2024/01/28 00:23:51;;;;;;;42.60;28.23;;;;;;;-144.47;100.00;61586.06;5063631;28;20101;-75
2024/01/28 00:26:16;;;;;;;42.55;27.30;;;;;;;-144.47;100.00;61586.06;5066286;28;20032;-74
2024/01/28 00:28:42;;;;;;;40.38;27.10;;;;;;;-144.47;100.00;61586.06;5065963;28;20116;-74
2024/01/28 00:31:09;;;;;;;37.83;25.67;;;;;;;-144.47;100.00;61586.06;5049674;28;20094;-75
2024/01/28 00:33:35;;;;;;;38.33;26.13;;;;;;;-144.47;100.00;61586.06;5067202;28;20074;-75
2024/01/28 00:36:00;;;;;;;38.97;27.35;;;;;;;-144.47;100.00;61586.06;5062957;28;20121;-74
2024/01/28 00:38:31;;;;;;;40.20;27.33;;;;;;;-144.47;100.00;61586.06;5067577;28;20082;-74
2024/01/28 00:40:59;;;;;;;41.63;27.08;;;;;;;-144.47;100.00;61586.06;5065716;28;20110;-74
2024/01/28 00:43:25;;;;;;;38.97;27.20;;;;;;;-144.47;100.00;61586.06;5063835;28;20110;-75
2024/01/28 00:45:50;;;;;;;38.30;26.63;;;;;;;-144.47;100.00;61586.06;5064533;28;20028;-75
2024/01/28 00:48:16;;;;;;;40.35;26.77;;;;;;;-144.47;100.00;61586.06;5067369;28;20037;-75
2024/01/28 00:50:41;;;;;;;42.22;27.73;;;;;;;-144.47;100.00;61586.06;5067778;28;20028;-75
2024/01/28 00:53:07;;;;;;;41.00;25.70;;;;;;;-144.47;100.00;61586.06;5064588;28;20056;-75
2024/01/28 00:55:33;;;;;;;40.30;25.90;;;;;;;-144.47;100.00;61586.06;5053287;28;20036;-74
2024/01/28 00:57:58;;;;;;;35.65;25.33;;;;;;;-144.47;100.00;61586.06;5067182;28;20050;-74
2024/01/28 01:00:25;;;;;;;40.30;26.33;;;;;;;-144.47;100.00;61586.06;5065080;28;20456;-74
2024/01/28 01:02:52;;;;;;;40.08;26.73;;;;;;;-144.47;100.00;61586.06;5070816;28;20127;-74
2024/01/28 01:05:17;;;;;;;37.63;25.48;;;;;;;-144.47;100.00;61586.06;5063815;28;20524;-75
2024/01/28 01:07:43;;;;;;;40.50;25.50;;;;;;;-144.47;100.00;61586.06;5068061;28;20112;-74
2024/01/28 01:10:09;;;;;;;37.40;25.50;;;;;;;-144.47;100.00;61586.06;5063072;28;20072;-74
2024/01/28 01:12:34;;;;;;;38.58;25.63;;;;;;;-144.47;100.00;61586.06;5066548;28;20063;-73
2024/01/28 01:14:59;;;;;;;39.75;25.27;;;;;;;-144.47;100.00;61586.06;5062631;28;20033;-75
2024/01/28 01:17:25;;;;;;;36.08;25.73;;;;;;;-144.47;100.00;61586.06;5049190;28;20448;-74
2024/01/28 01:19:50;;;;;;;37.83;26.50;;;;;;;-144.47;100.00;61586.06;5045176;28;20039;-75
2024/01/28 01:22:16;;;;;;;35.97;25.27;;;;;;;-144.47;100.00;61586.06;5062912;28;20032;-74
2024/01/28 01:24:41;;;;;;;39.25;26.30;;;;;;;-144.47;100.00;61586.06;5061816;28;20047;-74
2024/01/28 01:27:07;;;;;;;39.10;26.45;;;;;;;-144.47;100.00;61586.06;5069700;28;20047;-75
2024/01/28 01:29:33;;;;;;;36.03;25.60;;;;;;;-144.47;100.00;61586.06;5065622;28;20058;-74
2024/01/28 01:31:58;;;;;;;38.90;25.77;;;;;;;-144.47;100.00;61586.06;5064602;28;20033;-74
2024/01/28 01:34:24;;;;;;;40.72;28.08;;;;;;;-144.47;100.00;61586.06;5068295;28;20024;-75
2024/01/28 01:36:50;;;;;;;48.25;32.80;;;;;;;-144.47;100.00;61586.06;5066365;28;20441;-74
2024/01/28 01:39:16;;;;;;;49.13;31.63;;;;;;;-144.47;100.00;61586.06;5065808;28;20029;-74
2024/01/28 01:41:43;;;;;;;49.42;32.20;;;;;;;-144.47;100.00;61586.06;5069339;28;20032;-74
2024/01/28 01:44:09;;;;;;;46.30;31.73;;;;;;;-144.47;100.00;61586.06;5046585;28;20024;-75
2024/01/28 01:46:35;;;;;;;51.60;33.42;;;;;;;-144.47;100.00;61586.06;5049764;28;20396;-76
2024/01/28 01:49:02;;;;;;;49.40;33.55;;;;;;;-144.47;100.00;61586.06;5065905;28;20037;-75
2024/01/28 01:51:29;;;;;;;54.40;34.65;;;;;;;-144.47;100.00;61586.06;5067770;28;20028;-74
2024/01/28 01:53:55;;;;;;;52.80;33.65;;;;;;;-144.47;100.00;61586.06;5063294;28;20036;-75
2024/01/28 01:56:20;;;;;;;57.58;36.97;;;;;;;-144.47;100.00;61586.06;5065484;28;20047;-75
2024/01/28 01:58:46;;;;;;;52.70;35.33;;;;;;;-144.47;100.00;61586.06;5060524;28;20056;-76
2024/01/28 02:01:16;;;;;;;56.65;36.45;;;;;;;-144.47;100.00;61586.06;5062522;28;20388;-75
2024/01/28 02:03:42;;;;;;;54.63;37.60;;;;;;;-144.47;100.00;61586.06;5061408;28;20093;-75
2024/01/28 02:06:07;;;;;;;59.00;36.92;;;;;;;-144.47;100.00;61586.06;5063863;28;20036;-75
2024/01/28 02:08:33;;;;;;;52.47;33.53;;;;;;;-144.47;100.00;61586.06;5064524;28;20101;-76
2024/01/28 02:11:02;;;;;;;51.67;32.88;;;;;;;-144.47;100.00;61586.06;5062560;28;20043;-75
2024/01/28 02:13:28;;;;;;;50.97;33.53;;;;;;;-144.47;100.00;61586.06;5063999;28;20037;-75
2024/01/28 02:15:53;;;;;;;51.10;33.63;;;;;;;-144.47;100.00;61586.06;5066003;28;20021;-74
2024/01/28 02:18:18;;;;;;;54.33;34.30;;;;;;;-144.47;100.00;61586.06;5064166;28;20038;-74
2024/01/28 02:20:44;;;;;;;56.00;35.10;;;;;;;-144.47;100.00;61586.06;5044723;28;20033;-74
2024/01/28 02:23:10;;;;;;;52.35;34.05;;;;;;;-144.47;100.00;61586.06;5060097;28;20389;-75
2024/01/28 02:25:35;;;;;;;56.22;35.20;;;;;;;-144.47;100.00;61586.06;5067175;28;20055;-75
2024/01/28 02:28:01;;;;;;;56.40;34.83;;;;;;;-144.47;100.00;61586.06;5068938;28;20496;-75
2024/01/28 02:30:26;;;;;;;55.97;33.78;;;;;;;-144.47;100.00;61586.06;5062549;28;20429;-75
2024/01/28 02:32:52;;;;;;;50.13;32.95;;;;;;;-144.47;100.00;61586.06;5062379;28;20036;-74
2024/01/28 02:35:18;;;;;;;51.50;34.55;;;;;;;-144.47;100.00;61586.06;5065628;28;20033;-75
2024/01/28 02:37:44;;;;;;;55.00;34.50;;;;;;;-144.47;100.00;61586.06;5063560;28;20042;-76
2024/01/28 02:40:10;;;;;;;52.15;33.22;;;;;;;-144.47;100.00;61586.06;5062953;28;20036;-76
2024/01/28 02:42:35;;;;;;;51.83;34.45;;;;;;;-144.47;100.00;61586.06;5063313;28;20047;-74
2024/01/28 02:45:01;;;;;;;52.25;33.08;;;;;;;-144.47;100.00;61586.06;5062169;28;20417;-75
2024/01/28 02:47:27;;;;;;;49.65;30.80;;;;;;;-144.47;100.00;61586.06;5061129;28;20037;-74
2024/01/28 02:49:52;;;;;;;49.10;31.65;;;;;;;-144.47;100.00;61586.06;5064946;28;20059;-75
2024/01/28 02:52:18;;;;;;;46.50;31.60;;;;;;;-144.47;100.00;61586.06;5061857;28;20021;-76
2024/01/28 02:54:43;;;;;;;46.42;31.55;;;;;;;-144.47;100.00;61586.06;5064350;28;20032;-75
2024/01/28 02:57:09;;;;;;;44.22;31.17;;;;;;;-144.47;100.00;61586.06;5063262;28;20080;-75
2024/01/28 02:59:34;;;;;;;46.97;32.30;;;;;;;-144.47;100.00;61586.06;5062681;28;20036;-75
2024/01/28 03:02:00;;;;;;;53.03;32.95;;;;;;;-144.47;100.00;61586.06;5061150;28;20057;-74
2024/01/28 03:04:25;;;;;;;48.38;32.85;;;;;;;-144.47;100.00;61586.06;5065268;28;20112;-75
2024/01/28 03:06:51;;;;;;;51.67;34.38;;;;;;;-144.47;100.00;61586.06;5061327;28;20587;-74
2024/01/28 03:09:18;;;;;;;58.20;36.33;;;;;;;-144.47;100.00;61586.06;5064319;28;20043;-75
2024/01/28 03:11:44;;;;;;;53.33;34.50;;;;;;;-144.47;100.00;61586.06;5043591;28;20036;-74
2024/01/28 03:14:10;;;;;;;52.67;35.10;;;;;;;-144.47;100.00;61586.06;5065705;28;20461;-75
2024/01/28 03:16:36;;;;;;;54.83;35.83;;;;;;;-144.47;100.00;61586.06;5060899;28;20033;-74
2024/01/28 03:19:01;;;;;;;57.40;36.72;;;;;;;-144.47;100.00;61586.06;5065013;28;20074;-74
2024/01/28 03:21:27;;;;;;;50.58;36.45;;;;;;;-144.47;100.00;61586.06;5051043;28;20033;-73
2024/01/28 03:23:52;;;;;;;61.22;37.70;;;;;;;-144.47;100.00;61586.06;5058018;28;20153;-74
2024/01/28 03:26:19;;;;;;;56.38;37.85;;;;;;;-144.47;100.00;61586.06;5063917;28;20028;-74
2024/01/28 03:28:45;;;;;;;56.40;37.40;;;;;;;-144.47;100.00;61586.06;5042878;28;20040;-75
2024/01/28 03:31:10;;;;;;;60.30;40.22;;;;;;;-144.47;100.00;61586.06;5061998;28;20029;-75
2024/01/28 03:33:35;;;;;;;64.70;39.58;;;;;;;-144.47;100.00;61586.06;5049486;28;20546;-75
2024/01/28 03:36:01;;;;;;;65.88;41.95;;;;;;;-144.47;100.00;61586.06;5064786;28;20492;-74
2024/01/28 03:38:26;;;;;;;63.17;40.53;;;;;;;-144.47;100.00;61586.06;5066474;28;20031;-74
2024/01/28 03:40:52;;;;;;;67.88;40.53;;;;;;;-144.47;100.00;61586.06;5060688;28;20489;-74
2024/01/28 03:43:17;;;;;;;60.55;39.42;;;;;;;-144.47;100.00;61586.06;5063563;28;20448;-73
2024/01/28 03:45:43;;;;;;;64.97;40.33;;;;;;;-144.47;100.00;61586.06;5061604;28;20040;-74
2024/01/28 03:48:09;;;;;;;62.67;39.13;;;;;;;-144.47;100.00;61586.06;5062974;28;20028;-73
2024/01/28 03:50:34;;;;;;;63.03;39.38;;;;;;;-144.47;100.00;61586.06;5063387;28;20052;-77
2024/01/28 03:52:59;;;;;;;64.32;41.75;;;;;;;-144.47;100.00;61586.06;5061086;28;20127;-76
2024/01/28 03:55:25;;;;;;;62.55;41.50;;;;;;;-144.47;100.00;61586.06;5059990;28;20033;-77
2024/01/28 03:57:50;;;;;;;63.75;40.67;;;;;;;-144.47;100.00;61586.06;5064246;28;20114;-76
2024/01/28 04:00:18;;;;;;;60.25;39.80;;;;;;;-144.47;100.00;61586.06;5062420;28;20463;-76
2024/01/28 04:02:44;;;;;;;60.33;40.95;;;;;;;-144.47;100.00;61586.06;5063754;28;20126;-75
2024/01/28 04:05:09;;;;;;;65.60;42.15;;;;;;;-144.47;100.00;61586.06;5062174;28;20388;-76
2024/01/28 04:07:35;;;;;;;69.28;42.90;;;;;;;-144.47;100.00;61586.06;5061948;28;20036;-76
2024/01/28 04:10:00;;;;;;;66.25;43.20;;;;;;;-144.47;100.00;61586.06;5045620;28;20032;-76
2024/01/28 04:12:26;;;;;;;67.43;43.15;;;;;;;-144.47;100.00;61586.06;5064748;28;20169;-74
2024/01/28 04:14:51;;;;;;;69.18;42.78;;;;;;;-144.47;100.00;61586.06;5041545;28;20473;-75
2024/01/28 04:17:17;;;;;;;67.28;43.97;;;;;;;-144.47;100.00;61586.06;5065578;28;20036;-75
2024/01/28 04:19:42;;;;;;;76.68;46.90;;;;;;;-144.47;100.00;61586.06;5065835;28;20040;-76
2024/01/28 04:22:11;;;;;;;76.63;48.40;;;;;;;-144.47;100.00;61586.06;5051716;28;20032;-75
2024/01/28 04:24:36;;;;;;;71.65;45.78;;;;;;;-144.47;100.00;61586.06;5063247;28;20028;-76
2024/01/28 04:27:02;;;;;;;73.53;47.42;;;;;;;-144.47;100.00;61586.06;5064340;28;20163;-75
2024/01/28 04:29:28;;;;;;;75.47;48.97;;;;;;;-144.47;100.00;61586.06;5066976;28;20032;-75
2024/01/28 04:31:53;;;;;;;80.65;51.00;;;;;;;-144.47;100.00;61586.06;5064232;28;20259;-75
2024/01/28 04:34:20;;;;;;;82.30;51.58;;;;;;;-144.47;100.00;61586.06;5068579;28;20032;-76
2024/01/28 04:36:45;;;;;;;77.03;48.78;;;;;;;-144.47;100.00;61586.06;5066203;28;20041;-76
2024/01/28 04:39:11;;;;;;;83.93;50.60;;;;;;;-144.47;100.00;61586.06;5050601;28;20029;-75
2024/01/28 04:41:36;;;;;;;82.65;52.45;;;;;;;-144.47;100.00;61586.06;5070077;28;20028;-76
2024/01/28 04:44:02;;;;;;;79.95;51.70;;;;;;;-144.47;100.00;61586.06;5050501;28;20420;-75
2024/01/28 04:46:27;;;;;;;84.03;52.88;;;;;;;-144.47;100.00;61586.06;5068972;28;20033;-75
2024/01/28 04:48:53;;;;;;;83.38;53.78;;;;;;;-144.47;100.00;61586.06;5066323;28;20055;-75
2024/01/28 04:51:18;;;;;;;85.85;53.70;;;;;;;-144.47;100.00;61586.06;5062891;28;20429;-75
2024/01/28 04:53:44;;;;;;;85.53;53.97;;;;;;;-144.47;100.00;61586.06;5045968;28;20041;-75
2024/01/28 04:56:12;;;;;;;80.22;52.42;;;;;;;-144.47;100.00;61586.06;5064980;28;20045;-75
2024/01/28 04:58:38;;;;;;;86.72;53.85;;;;;;;-144.47;100.00;61586.06;5065202;28;20058;-75
2024/01/28 05:01:03;;;;;;;84.70;54.80;;;;;;;-144.47;100.00;61586.06;5063989;28;20052;-76
2024/01/28 05:03:30;;;;;;;85.72;55.33;;;;;;;-144.47;100.00;61586.06;5070391;28;20069;-76
2024/01/28 05:05:56;;;;;;;90.28;55.53;;;;;;;-144.47;100.00;61586.06;5062828;28;20048;-74
2024/01/28 05:08:22;;;;;;;92.93;56.50;;;;;;;-144.47;100.00;61586.06;5063195;28;20120;-74
2024/01/28 05:10:48;;;;;;;90.45;58.30;;;;;;;-144.47;100.00;61586.06;5065520;28;20395;-75
2024/01/28 05:13:13;;;;;;;91.07;59.85;;;;;;;-144.47;100.00;61586.06;5064438;28;20394;-75
2024/01/28 05:15:39;;;;;;;94.53;60.78;;;;;;;-144.47;100.00;61586.06;5064286;28;20107;-75
2024/01/28 05:18:05;;;;;;;86.03;58.40;;;;;;;-144.47;100.00;61586.06;5066965;28;20036;-76
2024/01/28 05:20:30;;;;;;;90.03;58.60;;;;;;;-144.47;100.00;61586.06;5066126;28;20137;-76
2024/01/28 05:22:59;;;;;;;91.32;60.10;;;;;;;-144.47;100.00;61586.06;5060162;28;20024;-75
2024/01/28 05:25:26;;;;;;;90.60;58.20;;;;;;;-144.47;100.00;61586.06;5064296;28;20067;-75
2024/01/28 05:27:51;;;;;;;90.93;58.38;;;;;;;-144.47;100.00;61586.06;5068297;28;20392;-74
2024/01/28 05:30:16;;;;;;;89.00;57.22;;;;;;;-144.47;100.00;61586.06;5062763;28;20116;-74
2024/01/28 05:32:42;;;;;;;89.10;56.25;;;;;;;-144.47;100.00;61586.06;5045017;28;20033;-75
2024/01/28 05:35:07;;;;;;;89.63;57.42;;;;;;;-144.47;100.00;61586.06;5063571;28;20134;-75
2024/01/28 05:37:33;;;;;;;89.88;57.40;;;;;;;-144.47;100.00;61586.06;5063204;28;20086;-76
2024/01/28 05:39:58;;;;;;;90.80;58.50;;;;;;;-144.47;100.00;61586.06;5066003;28;20063;-75
2024/01/28 05:42:24;;;;;;;88.57;58.58;;;;;;;-144.47;100.00;61586.06;5063005;28;20044;-75
2024/01/28 05:44:49;;;;;;;92.90;58.10;;;;;;;-144.47;100.00;61586.06;5069428;28;20036;-75
2024/01/28 05:47:15;;;;;;;89.90;56.17;;;;;;;-144.47;100.00;61586.06;5063092;28;20062;-74
2024/01/28 05:49:40;;;;;;;88.53;57.25;;;;;;;-144.47;100.00;61586.06;5063328;28;20120;-75
2024/01/28 05:52:06;;;;;;;89.38;59.08;;;;;;;-144.47;100.00;61586.06;5064148;28;20330;-75
2024/01/28 05:54:32;;;;;;;93.32;58.22;;;;;;;-144.47;100.00;61586.06;5062668;28;20025;-75
2024/01/28 05:56:58;;;;;;;90.45;56.15;;;;;;;-144.47;100.00;61586.06;5065446;28;20205;-75
2024/01/28 05:59:23;;;;;;;93.32;58.97;;;;;;;-144.47;100.00;61586.06;5061537;28;20502;-75
2024/01/28 06:01:49;;;;;;;88.00;55.78;;;;;;;-144.47;100.00;61586.06;5065084;28;20041;-75
2024/01/28 06:04:15;;;;;;;92.93;58.03;;;;;;;-144.47;100.00;61586.06;5060766;28;20098;-76
2024/01/28 06:06:42;;;;;;;87.20;54.40;;;;;;;-144.47;100.00;61586.06;5049261;28;20040;-75
2024/01/28 06:09:08;;;;;;;86.72;55.80;;;;;;;-144.47;100.00;61586.06;5063243;28;20123;-75
2024/01/28 06:11:36;;;;;;;90.70;57.17;;;;;;;-144.47;100.00;61586.06;5063715;28;20124;-75
2024/01/28 06:14:01;;;;;;;87.55;56.72;;;;;;;-144.47;100.00;61586.06;5066466;28;20048;-76
2024/01/28 06:16:28;;;;;;;89.95;56.22;;;;;;;-144.47;100.00;61586.06;5065221;28;20530;-76
2024/01/28 06:18:53;;;;;;;89.63;58.33;;;;;;;-144.47;100.00;61586.06;5060773;28;20041;-76
2024/01/28 06:21:19;;;;;;;89.60;56.25;;;;;;;-144.47;100.00;61586.06;5046452;28;20098;-75
2024/01/28 06:23:44;;;;;;;87.22;56.10;;;;;;;-144.47;100.00;61586.06;5043424;28;20033;-75
2024/01/28 06:26:10;;;;;;;87.38;56.10;;;;;;;-144.47;100.00;61586.06;5064694;28;20063;-75
2024/01/28 06:28:36;;;;;;;90.55;57.13;;;;;;;-144.47;100.00;61586.06;5062525;28;20029;-76
2024/01/28 06:31:01;;;;;;;92.28;56.88;;;;;;;-144.47;100.00;61586.06;5064388;28;20079;-75
2024/01/28 06:33:28;;;;;;;96.53;56.67;;;;;;;-144.47;100.00;61586.06;5061620;28;20024;-75
2024/01/28 06:35:53;;;;;;;91.13;57.42;;;;;;;-144.47;100.00;61586.06;5057442;28;20186;-75
2024/01/28 06:38:19;;;;;;;97.03;58.65;;;;;;;-144.47;100.00;61586.06;5045962;28;20029;-76
2024/01/28 06:40:44;;;;;;;97.75;59.47;;;;;;;-144.47;100.00;61586.06;5063850;28;20101;-75
2024/01/28 06:43:10;;;;;;;92.07;57.28;;;;;;;-144.47;100.00;61586.06;5065134;28;20122;-76
2024/01/28 06:45:35;;;;;;;94.72;59.55;;;;;;;-144.47;100.00;61586.06;5063308;28;20115;-75
2024/01/28 06:48:00;;;;;;;91.90;58.97;;;;;;;-144.47;100.00;61586.06;5062074;28;20479;-76
2024/01/28 06:50:26;;;;;;;93.70;60.80;;;;;;;-144.47;100.00;61586.06;5065196;28;20060;-75
2024/01/28 06:52:51;;;;;;;93.13;58.85;;;;;;;-144.47;100.00;61586.06;5059936;28;20043;-75
2024/01/28 06:55:17;;;;;;;94.63;60.70;;;;;;;-144.47;100.00;61586.06;5064699;28;20040;-75
2024/01/28 06:57:42;;;;;;;99.88;61.60;;;;;;;-144.47;100.00;61586.06;5059963;28;20055;-75
2024/01/28 07:00:13;;;;;;;112.90;61.35;;;;;;;-144.47;100.00;61586.06;5064156;28;20032;-77
2024/01/28 07:02:39;;;;;;;107.68;64.28;;;;;;;-144.47;100.00;61586.06;5064618;28;20025;-75
2024/01/28 07:05:05;;;;;;;134.27;65.35;;;;;;;-144.47;100.00;61586.06;5063601;28;20592;-75
2024/01/28 07:07:31;;;;;;;111.35;61.65;;;;;;;-144.47;100.00;61586.06;5060884;28;20037;-75
2024/01/28 07:09:56;;;;;;;101.30;62.10;;;;;;;-144.47;100.00;61586.06;5064316;28;20450;-76
2024/01/28 07:12:21;;;;;;;100.05;63.20;;;;;;;-144.47;100.00;61586.06;5060291;28;20033;-76
2024/01/28 07:14:47;;;;;;;108.18;63.30;;;;;;;-144.47;100.00;61586.06;5061650;28;20036;-75
2024/01/28 07:17:12;;;;;;;106.45;64.95;;;;;;;-144.47;100.00;61586.06;5063303;28;20102;-75
2024/01/28 07:19:40;;;;;;;96.68;63.95;;;;;;;-144.47;100.00;61586.06;5062693;28;20032;-76
2024/01/28 07:22:06;;;;;;;90.65;62.42;;;;;;;-144.47;100.00;61586.06;5060772;28;20064;-75
2024/01/28 07:24:31;;;;;;;97.57;64.28;;;;;;;-144.47;100.00;61586.06;5060389;28;20507;-77
2024/01/28 07:26:57;;;;;;;89.90;63.20;;;;;;;-144.47;100.00;61586.06;5060799;28;20040;-76
2024/01/28 07:29:22;;;;;;;96.57;62.55;;;;;;;-144.47;100.00;61586.06;5061238;28;20369;-75
2024/01/28 07:31:48;;;;;;;92.35;62.90;;;;;;;-144.47;100.00;61586.06;5064339;28;20443;-75
2024/01/28 07:34:18;;;;;;;97.18;62.38;;;;;;;-144.47;100.00;61586.06;5066410;28;20029;-75
2024/01/28 07:36:45;;;;;;;88.45;61.80;;;;;;;-144.47;100.00;61586.06;5042500;28;20107;-75
2024/01/28 07:39:13;;;;;;;159.65;64.18;;;;;;;-144.47;100.00;61586.06;5062584;28;20385;-75
2024/01/28 07:41:38;;;;;;;180.90;62.28;;;;;;;-144.47;100.00;61586.06;5064121;28;20039;-77
2024/01/28 07:44:04;;;;;;;202.93;63.60;;;;;;;-144.47;100.00;61586.06;5067019;28;20032;-76
2024/01/28 07:46:29;;;;;;;110.22;61.67;;;;;;;-144.47;100.00;61586.06;5061175;28;20051;-75
2024/01/28 07:48:55;;;;;;;162.88;62.42;;;;;;;-144.47;100.00;61586.06;5064300;28;20048;-76
2024/01/28 07:51:20;;;;;;;152.68;60.95;;;;;;;-144.47;100.00;61586.06;5061773;28;20024;-75
2024/01/28 07:53:46;;;;;;;125.10;60.05;;;;;;;-144.47;100.00;61586.06;5065018;28;20365;-75
2024/01/28 07:56:11;;;;;;;117.85;64.07;;;;;;;-144.47;100.00;61586.06;5066093;28;20429;-75
2024/01/28 07:58:37;;;;;;;115.38;63.85;;;;;;;-144.47;100.00;61586.06;5070175;28;20036;-75
2024/01/28 08:01:05;;;;;;;142.15;63.33;;;;;;;-144.47;100.00;61586.06;5067058;28;20033;-76
2024/01/28 08:03:30;;;;;;;101.18;63.15;;;;;;;-144.47;100.00;61586.06;5062551;28;20025;-78
2024/01/28 08:05:56;;;;;;;99.60;60.58;;;;;;;-144.47;100.00;61586.06;5068236;28;20059;-76
2024/01/28 08:08:21;;;;;;;97.53;58.13;;;;;;;-144.47;100.00;61586.06;5066529;28;20021;-77
2024/01/28 08:10:47;;;;;;;84.43;58.65;;;;;;;-144.47;100.00;61586.06;5066391;28;20309;-76
2024/01/28 08:13:12;;;;;;;88.03;59.08;;;;;;;-144.47;100.00;61586.06;5065512;28;20048;-76
2024/01/28 08:15:38;;;;;;;85.65;59.90;;;;;;;-144.47;100.00;61586.06;5065260;28;20035;-76
2024/01/28 08:18:03;;;;;;;89.57;58.83;;;;;;;-144.47;100.00;61586.06;5051566;28;20809;-77
2024/01/28 08:20:29;;;;;;;90.40;59.88;;;;;;;-144.47;100.00;61586.06;5067854;28;20035;-75
2024/01/28 08:22:54;;;;;;;85.47;58.88;;;;;;;-144.47;100.00;61586.06;5063796;28;20523;-76
2024/01/28 08:25:19;;;;;;;81.82;57.53;;;;;;;-144.47;100.00;61586.06;5068420;28;20112;-76
2024/01/28 08:27:45;;;;;;;99.60;56.42;;;;;;;-144.47;100.00;61586.06;5066712;28;20035;-75
2024/01/28 08:30:11;;;;;;;85.82;55.15;;;;;;;-144.47;100.00;61586.06;5066085;28;20033;-75
2024/01/28 08:32:37;;;;;;;78.97;53.72;;;;;;;-144.47;100.00;61586.06;5066890;28;20035;-75
2024/01/28 08:35:03;;;;;;;73.82;54.67;;;;;;;-144.47;100.00;61586.06;5045575;28;20152;-76
2024/01/28 08:37:29;;;;;;;72.90;53.97;;;;;;;-144.47;100.00;61586.06;5067842;28;20099;-75
2024/01/28 08:39:54;;;;;;;79.80;51.35;;;;;;;-144.47;100.00;61586.06;5066869;28;20044;-75
2024/01/28 08:42:19;;;;;;;78.05;52.47;;;;;;;-144.47;100.00;61586.06;5065958;28;20035;-74
2024/01/28 08:44:46;;;;;;;70.95;50.35;;;;;;;-144.47;100.00;61586.06;5048561;28;20037;-76
2024/01/28 08:47:12;;;;;;;70.63;51.97;;;;;;;-144.47;100.00;61586.06;5064973;28;20032;-77
2024/01/28 08:49:37;;;;;;;67.72;50.45;;;;;;;-144.47;100.00;61586.06;5065954;28;20039;-76
2024/01/28 08:52:03;;;;;;;69.30;51.78;;;;;;;-144.47;100.00;61586.06;5068083;28;20037;-75
2024/01/28 08:54:30;;;;;;;70.25;51.78;;;;;;;-144.47;100.00;61586.06;5050570;28;20028;-77
2024/01/28 08:56:59;;;;;;;66.72;49.92;;;;;;;-144.47;100.00;61586.06;5067033;28;20641;-76
2024/01/28 08:59:25;;;;;;;64.90;48.90;;;;;;;-144.47;100.00;61586.06;5062875;28;20453;-76
2024/01/28 09:01:51;;;;;;;66.68;48.15;;;;;;;-144.47;100.00;61586.06;5066361;28;20044;-77
2024/01/28 09:04:17;;;;;;;59.92;45.88;;;;;;;-144.47;100.00;61586.06;5063221;28;20334;-77
2024/01/28 09:06:43;;;;;;;61.58;47.15;;;;;;;-144.47;100.00;61586.06;5066420;28;20070;-74
2024/01/28 09:09:09;;;;;;;63.28;47.90;;;;;;;-144.47;100.00;61586.06;5071389;28;20132;-76
2024/01/28 09:11:35;;;;;;;60.92;47.05;;;;;;;-144.47;100.00;61586.06;5068671;28;20151;-77
2024/01/28 09:14:01;;;;;;;65.55;49.28;;;;;;;-144.47;100.00;61586.06;5067215;28;20150;-75
2024/01/28 09:16:27;;;;;;;62.05;48.50;;;;;;;-144.47;100.00;61586.06;5064595;28;20076;-75
2024/01/28 09:18:52;;;;;;;61.25;46.03;;;;;;;-144.47;100.00;61586.06;5066791;28;20444;-75
2024/01/28 09:21:18;;;;;;;60.00;47.15;;;;;;;-144.47;100.00;61586.06;5066729;28;20049;-75
2024/01/28 09:23:43;;;;;;;64.95;49.72;;;;;;;-144.47;100.00;61586.06;5060674;28;20062;-76
2024/01/28 09:26:08;;;;;;;62.78;48.47;;;;;;;-144.47;100.00;61586.06;5064540;28;20032;-75
2024/01/28 09:28:34;;;;;;;65.70;49.85;;;;;;;-144.47;100.00;61586.06;5063683;28;20172;-74
2024/01/28 09:30:59;;;;;;;63.28;49.00;;;;;;;-144.47;100.00;61586.06;5065608;28;20040;-77
2024/01/28 09:33:26;;;;;;;64.97;48.78;;;;;;;-144.47;100.00;61586.06;5062996;28;20032;-77
2024/01/28 09:35:52;;;;;;;66.45;49.33;;;;;;;-144.47;100.00;61586.06;5066105;28;20028;-76
2024/01/28 09:38:21;;;;;;;64.72;49.38;;;;;;;-144.47;100.00;61586.06;5062286;28;20170;-75
2024/01/28 09:40:47;;;;;;;67.07;49.03;;;;;;;-144.47;100.00;61586.06;5067779;28;20055;-74
2024/01/28 09:43:43;;;;;;;66.18;48.97;;;;;;;-144.47;100.00;61586.06;5046785;28;20040;-75
2024/01/28 09:46:09;;;;;;;67.22;49.25;;;;;;;-144.47;100.00;61586.06;5055328;28;20158;-76
2024/01/28 09:48:35;;;;;;;70.40;50.33;;;;;;;-144.47;100.00;61586.06;5065094;28;20071;-75
2024/01/28 09:51:00;;;;;;;71.53;51.85;;;;;;;-144.47;100.00;61586.06;5064152;28;20040;-78
2024/01/28 09:53:26;;;;;;;71.07;52.45;;;;;;;-144.47;100.00;61586.06;5065625;28;20120;-76
2024/01/28 09:55:51;;;;;;;74.22;53.00;;;;;;;-144.47;100.00;61586.06;5062585;28;20033;-75
2024/01/28 09:58:17;;;;;;;78.93;55.00;;;;;;;-144.47;100.00;61586.06;5065118;28;20051;-76
2024/01/28 10:00:43;;;;;;;79.60;56.60;;;;;;;-144.47;100.00;61586.06;5062435;28;20515;-76
2024/01/28 10:03:09;;;;;;;79.30;55.30;;;;;;;-144.47;100.00;61586.06;5067651;28;20037;-74
2024/01/28 10:05:35;;;;;;;74.53;54.17;;;;;;;-144.47;100.00;61586.06;5046320;28;20044;-74
2024/01/28 10:08:02;;;;;;;87.60;58.15;;;;;;;-144.47;100.00;61586.06;5069891;28;20032;-74
2024/01/28 10:10:28;;;;;;;78.38;55.80;;;;;;;-144.47;100.00;61586.06;5063221;28;20108;-74
2024/01/28 10:12:55;;;;;;;82.80;57.28;;;;;;;-144.47;100.00;61586.06;5061619;28;20043;-74
2024/01/28 10:15:21;;;;;;;85.35;59.78;;;;;;;-144.47;100.00;61586.06;5060946;28;20036;-76
2024/01/28 10:17:48;;;;;;;86.13;59.13;;;;;;;-144.47;100.00;61586.06;5064835;28;20037;-75
2024/01/28 10:20:32;;;;;;;94.07;63.38;;;;;;;-144.47;100.00;61586.06;5067295;28;20040;-76
2024/01/28 10:22:57;;;;;;;94.40;63.28;;;;;;;-144.47;100.00;61586.06;5054489;28;20045;-75
2024/01/28 10:25:23;;;;;;;99.28;67.05;;;;;;;-144.47;100.00;61586.06;5066937;28;20031;-75
2024/01/28 10:27:49;;;;;;;100.13;65.97;;;;;;;-144.47;100.00;61586.06;5061666;28;20037;-75
2024/01/28 10:30:16;;;;;;;100.50;64.85;;;;;;;-144.47;100.00;61586.06;5065103;28;20032;-76
2024/01/28 10:32:43;;;;;;;102.20;66.25;;;;;;;-144.47;100.00;61586.06;5063368;28;20020;-76
2024/01/28 10:35:10;;;;;;;100.00;66.32;;;;;;;-144.47;100.00;61586.06;5062625;28;20037;-76
2024/01/28 10:37:36;;;;;;;99.97;65.43;;;;;;;-144.47;100.00;61586.06;5063003;28;20041;-78
2024/01/28 10:40:07;;;;;;;92.78;64.22;;;;;;;-144.47;100.00;61586.06;5067780;28;20104;-75
2024/01/28 10:42:39;;;;;;;95.50;63.35;;;;;;;-144.47;100.00;61586.06;5061301;28;20037;-77
2024/01/28 10:45:08;;;;;;;93.95;63.75;;;;;;;-144.47;100.00;61586.06;5064852;28;20409;-76
2024/01/28 10:47:36;;;;;;;96.38;63.42;;;;;;;-144.47;100.00;61586.06;5063456;28;20089;-76
2024/01/28 10:50:05;;;;;;;93.55;63.10;;;;;;;-144.47;100.00;61586.06;5064513;28;20424;-75